createdAt,value
2018-08-20T00:06:22.111Z,13.20
2018-08-20T00:08:50.830Z,13.43
2018-08-20T00:11:19.565Z,13.77
2018-08-20T00:13:48.301Z,14.23
2018-08-20T00:16:17.158Z,14.90
2018-08-20T00:18:45.864Z,16.10
2018-08-20T00:21:14.593Z,14.83
2018-08-20T00:23:43.327Z,14.40
2018-08-20T00:26:13.138Z,14.47
2018-08-20T00:28:41.873Z,14.80
2018-08-20T00:31:10.610Z,14.90
2018-08-20T00:33:39.321Z,15.43
2018-08-20T00:36:08.043Z,15.63
2018-08-20T00:38:36.811Z,16.50
2018-08-20T00:41:05.523Z,16.57
2018-08-20T00:43:34.249Z,17.20
2018-08-20T00:46:02.967Z,17.87
2018-08-20T00:48:31.757Z,18.37
2018-08-20T00:51:00.487Z,18.23
2018-08-20T00:53:29.233Z,17.33
2018-08-20T00:55:58.169Z,18.47
2018-08-20T00:58:26.946Z,17.63
2018-08-20T01:00:55.701Z,17.17
2018-08-20T01:03:24.424Z,17.03
2018-08-20T01:05:53.203Z,17.17
2018-08-20T01:08:21.928Z,16.97
2018-08-20T01:10:50.662Z,16.73
2018-08-20T01:13:19.381Z,16.20
2018-08-20T01:15:48.119Z,16.70
2018-08-20T01:18:16.844Z,16.93
2018-08-20T01:20:45.564Z,16.43
2018-08-20T01:23:14.337Z,16.97
2018-08-20T01:25:43.060Z,15.83
2018-08-20T01:28:11.764Z,14.50
2018-08-20T01:30:40.836Z,14.13
2018-08-20T01:33:17.128Z,14.63
2018-08-20T01:35:45.875Z,12.97
2018-08-20T01:38:14.587Z,13.03
2018-08-20T01:40:43.303Z,13.17
2018-08-20T01:43:12.022Z,11.57
2018-08-20T01:45:41.366Z,10.90
2018-08-20T01:48:10.058Z,10.87
2018-08-20T01:50:39.060Z,10.73
2018-08-20T01:53:07.830Z,10.23
2018-08-20T01:55:36.545Z,9.80
2018-08-20T01:58:05.283Z,9.30
2018-08-20T02:00:34.094Z,9.77
2018-08-20T02:03:03.101Z,9.47
2018-08-20T02:05:32.107Z,10.13
2018-08-20T02:08:01.210Z,9.47
2018-08-20T02:10:30.056Z,9.20
2018-08-20T02:12:58.748Z,8.77
2018-08-20T02:15:27.494Z,8.80
2018-08-20T02:17:56.367Z,8.73
2018-08-20T02:20:25.102Z,9.07
2018-08-20T02:22:53.810Z,8.73
2018-08-20T02:25:22.510Z,9.00
2018-08-20T02:27:51.234Z,8.43
2018-08-20T02:30:19.958Z,8.37
2018-08-20T02:32:48.671Z,8.80
2018-08-20T02:35:17.413Z,8.03
2018-08-20T02:37:47.391Z,7.50
2018-08-20T02:40:17.400Z,7.90
2018-08-20T02:42:46.333Z,7.50
2018-08-20T02:45:17.033Z,7.13
2018-08-20T02:47:46.021Z,6.97
2018-08-20T02:50:15.223Z,7.00
2018-08-20T02:52:44.757Z,6.80
2018-08-20T02:55:13.755Z,7.13
2018-08-20T02:57:42.503Z,6.67
2018-08-20T03:00:13.331Z,6.57
2018-08-20T03:02:42.047Z,6.80
2018-08-20T03:05:11.829Z,6.33
2018-08-20T03:07:40.575Z,6.87
2018-08-20T03:10:11.038Z,6.53
2018-08-20T03:12:39.989Z,6.00
2018-08-20T03:15:09.594Z,6.57
2018-08-20T03:17:38.299Z,6.70
2018-08-20T03:20:07.283Z,6.53
2018-08-20T03:22:36.018Z,7.10
2018-08-20T03:25:05.271Z,6.30
2018-08-20T03:27:34.007Z,6.43
2018-08-20T03:30:02.714Z,6.07
2018-08-20T03:32:31.440Z,6.10
2018-08-20T03:35:00.140Z,6.43
2018-08-20T03:37:28.848Z,6.97
2018-08-20T03:39:57.610Z,6.33
2018-08-20T03:42:26.382Z,5.97
2018-08-20T03:44:55.095Z,6.23
2018-08-20T03:47:23.838Z,6.67
2018-08-20T03:49:52.744Z,6.97
2018-08-20T03:52:21.454Z,6.33
2018-08-20T03:54:50.206Z,7.50
2018-08-20T03:57:18.926Z,6.50
2018-08-20T03:59:47.618Z,6.00
2018-08-20T04:02:16.553Z,6.00
2018-08-20T04:04:45.274Z,6.40
2018-08-20T04:07:14.198Z,6.47
2018-08-20T04:09:42.886Z,6.70
2018-08-20T04:12:11.660Z,6.27
2018-08-20T04:14:40.385Z,6.23
2018-08-20T04:17:09.142Z,5.73
2018-08-20T04:19:37.874Z,6.70
2018-08-20T04:22:06.618Z,7.33
2018-08-20T04:24:35.408Z,6.00
2018-08-20T04:27:04.104Z,7.73
2018-08-20T04:29:33.056Z,6.40
2018-08-20T04:32:01.983Z,6.30
2018-08-20T04:34:30.660Z,6.53
2018-08-20T04:36:59.380Z,6.83
2018-08-20T04:39:28.419Z,6.20
2018-08-20T04:41:57.337Z,5.60
2018-08-20T04:44:26.083Z,7.17
2018-08-20T04:46:54.836Z,6.20
2018-08-20T04:49:23.871Z,6.87
2018-08-20T04:51:52.600Z,6.80
2018-08-20T04:54:21.403Z,6.37
2018-08-20T04:56:50.139Z,6.63
2018-08-20T04:59:18.867Z,6.90
2018-08-20T05:01:47.569Z,6.90
2018-08-20T05:04:16.356Z,7.37
2018-08-20T05:06:45.195Z,6.77
2018-08-20T05:09:13.917Z,7.10
2018-08-20T05:11:42.702Z,6.90
2018-08-20T05:14:11.581Z,7.30
2018-08-20T05:16:40.401Z,6.87
2018-08-20T05:19:09.182Z,7.00
2018-08-20T05:21:37.941Z,6.90
2018-08-20T05:24:06.715Z,7.57
2018-08-20T05:26:35.498Z,7.17
2018-08-20T05:29:04.255Z,7.30
2018-08-20T05:31:32.969Z,6.63
2018-08-20T05:34:01.723Z,6.80
2018-08-20T05:36:30.436Z,6.27
2018-08-20T05:38:59.212Z,7.57
2018-08-20T05:41:27.965Z,7.23
2018-08-20T05:43:56.682Z,6.73
2018-08-20T05:46:25.462Z,8.27
2018-08-20T05:48:54.202Z,7.13
2018-08-20T05:51:22.924Z,6.90
2018-08-20T05:53:51.654Z,7.50
2018-08-20T05:56:20.414Z,7.50
2018-08-20T05:58:49.840Z,6.87
2018-08-20T06:01:18.616Z,6.70
2018-08-20T06:03:47.369Z,7.33
2018-08-20T06:06:16.090Z,7.43
2018-08-20T06:08:44.907Z,6.93
2018-08-20T06:11:13.630Z,6.70
2018-08-20T06:13:42.372Z,6.73
2018-08-20T06:16:11.121Z,7.07
2018-08-20T06:18:40.341Z,6.70
2018-08-20T06:21:09.045Z,6.80
2018-08-20T06:23:37.871Z,7.77
2018-08-20T06:26:06.609Z,7.30
2018-08-20T06:28:35.402Z,6.80
2018-08-20T06:31:04.149Z,7.00
2018-08-20T06:33:32.859Z,7.37
2018-08-20T06:36:01.593Z,7.33
2018-08-20T06:38:30.329Z,6.63
2018-08-20T06:40:59.113Z,7.67
2018-08-20T06:43:27.817Z,6.47
2018-08-20T06:45:56.595Z,7.27
2018-08-20T06:48:25.328Z,6.67
2018-08-20T06:50:54.073Z,7.97
2018-08-20T06:53:22.809Z,7.97
2018-08-20T06:55:51.626Z,7.60
2018-08-20T06:58:20.317Z,7.73
2018-08-20T07:00:49.280Z,8.33
2018-08-20T07:03:18.698Z,7.97
2018-08-20T07:05:47.407Z,7.57
2018-08-20T07:08:16.190Z,7.20
2018-08-20T07:10:47.663Z,6.93
2018-08-20T07:13:27.657Z,7.87
2018-08-20T07:15:56.492Z,7.70
2018-08-20T07:18:25.282Z,7.63
2018-08-20T07:20:54.084Z,7.17
2018-08-20T07:23:22.818Z,7.73
2018-08-20T07:25:52.448Z,7.73
2018-08-20T07:28:21.180Z,7.00
2018-08-20T07:30:49.921Z,7.07
2018-08-20T07:33:18.746Z,7.47
2018-08-20T07:35:47.517Z,7.20
2018-08-20T07:38:16.260Z,7.13
2018-08-20T07:40:45.004Z,7.50
2018-08-20T07:43:13.718Z,7.27
2018-08-20T07:45:42.467Z,6.70
2018-08-20T07:48:11.198Z,6.50
2018-08-20T07:50:39.960Z,6.53
2018-08-20T07:53:08.718Z,5.87
2018-08-20T07:58:12.406Z,6.20
2018-08-20T08:00:41.126Z,6.10
2018-08-20T08:03:09.890Z,6.10
2018-08-20T08:05:38.606Z,6.40
2018-08-20T08:08:07.418Z,5.70
2018-08-20T08:10:36.215Z,5.93
2018-08-20T08:13:04.941Z,5.37
2018-08-20T08:15:33.892Z,5.67
2018-08-20T08:18:02.699Z,4.93
2018-08-20T08:20:31.406Z,4.83
2018-08-20T08:23:00.221Z,5.03
2018-08-20T08:25:28.931Z,5.10
2018-08-20T08:27:57.687Z,5.00
2018-08-20T08:30:26.414Z,7.63
2018-08-20T08:32:55.150Z,5.93
2018-08-20T08:35:23.881Z,5.87
2018-08-20T08:37:52.668Z,5.20
2018-08-20T08:40:21.375Z,5.03
2018-08-20T08:42:50.187Z,4.90
2018-08-20T08:45:19.230Z,5.03
2018-08-20T08:47:48.017Z,4.80
2018-08-20T08:50:17.539Z,4.40
2018-08-20T08:52:47.147Z,4.33
2018-08-20T08:55:15.938Z,4.50
2018-08-20T08:57:44.694Z,4.93
2018-08-20T09:00:18.002Z,4.20
2018-08-20T09:02:46.811Z,4.10
2018-08-20T09:05:15.761Z,4.00
2018-08-20T09:07:44.870Z,3.87
2018-08-20T09:10:13.849Z,4.17
2018-08-20T09:12:42.660Z,3.67
2018-08-20T09:15:14.110Z,3.23
2018-08-20T09:17:43.389Z,4.10
2018-08-20T09:20:14.057Z,3.90
2018-08-20T09:22:42.793Z,3.73
2018-08-20T09:25:12.671Z,3.60
2018-08-20T09:27:42.670Z,3.50
2018-08-20T09:30:17.602Z,3.43
2018-08-20T09:32:47.272Z,4.00
2018-08-20T09:35:16.062Z,4.30
2018-08-20T09:37:44.823Z,4.00
2018-08-20T09:40:13.872Z,4.60
2018-08-20T09:42:43.016Z,4.07
2018-08-20T09:45:11.742Z,3.47
2018-08-20T09:47:41.416Z,3.70
2018-08-20T09:50:12.641Z,3.23
2018-08-20T09:52:41.440Z,3.50
2018-08-20T09:55:10.434Z,3.60
2018-08-20T09:57:39.479Z,3.27
2018-08-20T10:00:11.680Z,3.13
2018-08-20T10:02:40.423Z,3.17
2018-08-20T10:05:09.196Z,3.20
2018-08-20T10:07:38.059Z,3.47
2018-08-20T10:10:06.868Z,3.03
2018-08-20T10:12:35.603Z,3.47
2018-08-20T10:15:04.490Z,3.33
2018-08-20T10:17:33.217Z,3.23
2018-08-20T10:20:02.150Z,2.50
2018-08-20T10:22:30.887Z,2.80
2018-08-20T10:24:59.697Z,2.90
2018-08-20T10:27:28.448Z,2.67
2018-08-20T10:29:57.151Z,2.77
2018-08-20T10:32:25.886Z,2.83
2018-08-20T10:34:54.697Z,2.83
2018-08-20T10:37:23.407Z,3.77
2018-08-20T10:39:52.251Z,2.70
2018-08-20T10:42:20.957Z,2.93
2018-08-20T10:44:52.754Z,3.00
2018-08-20T10:47:22.028Z,3.30
2018-08-20T10:49:51.010Z,3.13
2018-08-20T10:52:19.822Z,3.47
2018-08-20T10:54:48.631Z,3.23
2018-08-20T10:57:17.409Z,2.80
2018-08-20T10:59:46.144Z,3.17
2018-08-20T11:02:14.930Z,2.90
2018-08-20T11:04:43.728Z,3.27
2018-08-20T11:07:12.444Z,4.00
2018-08-20T11:09:41.294Z,3.20
2018-08-20T11:12:09.998Z,3.03
2018-08-20T11:14:38.820Z,3.20
2018-08-20T11:17:07.570Z,3.30
2018-08-20T11:19:36.344Z,3.00
2018-08-20T11:22:05.222Z,3.10
2018-08-20T11:24:33.972Z,3.23
2018-08-20T11:27:02.721Z,3.00
2018-08-20T11:29:31.523Z,3.40
2018-08-20T11:32:00.516Z,3.00
2018-08-20T11:34:29.345Z,2.63
2018-08-20T11:36:58.143Z,2.50
2018-08-20T11:39:26.987Z,2.40
2018-08-20T11:41:55.901Z,2.40
2018-08-20T11:44:24.759Z,2.60
2018-08-20T11:46:53.697Z,2.30
2018-08-20T11:49:22.467Z,2.37
2018-08-20T11:51:51.409Z,2.57
2018-08-20T11:54:20.275Z,3.30
2018-08-20T11:56:49.217Z,2.67
2018-08-20T11:59:18.051Z,2.87
2018-08-20T12:01:46.903Z,2.80
2018-08-20T12:04:15.733Z,2.33
2018-08-20T12:06:44.645Z,2.33
2018-08-20T12:09:14.141Z,2.43
2018-08-20T12:11:42.977Z,2.27
2018-08-20T12:14:11.821Z,2.13
2018-08-20T12:16:40.625Z,1.90
2018-08-20T12:19:09.478Z,2.20
2018-08-20T12:21:38.313Z,2.23
2018-08-20T12:24:07.119Z,2.10
2018-08-20T12:26:35.947Z,2.20
2018-08-20T12:29:04.885Z,2.30
2018-08-20T12:31:33.686Z,2.20
2018-08-20T12:34:03.077Z,2.37
2018-08-20T12:36:31.917Z,2.30
2018-08-20T12:39:00.901Z,2.20
2018-08-20T12:41:29.906Z,2.43
2018-08-20T12:43:58.826Z,2.47
2018-08-20T12:46:28.327Z,2.40
2018-08-20T12:48:57.176Z,2.50
2018-08-20T12:51:26.110Z,3.10
2018-08-20T12:53:55.053Z,2.20
2018-08-20T12:56:23.867Z,1.97
2018-08-20T12:58:53.595Z,1.90
2018-08-20T13:01:22.424Z,2.07
2018-08-20T13:03:51.470Z,2.70
2018-08-20T13:06:20.284Z,2.10
2018-08-20T13:08:49.133Z,2.00
2018-08-20T13:11:18.008Z,2.10
2018-08-20T13:13:47.038Z,1.90
2018-08-20T13:16:16.004Z,2.10
2018-08-20T13:18:44.752Z,2.20
2018-08-20T13:21:13.700Z,2.00
2018-08-20T13:23:42.598Z,2.10
2018-08-20T13:26:11.450Z,2.00
2018-08-20T13:28:40.254Z,2.43
2018-08-20T13:31:09.094Z,2.23
2018-08-20T13:33:37.921Z,3.80
2018-08-20T13:36:06.787Z,2.50
2018-08-20T13:38:35.670Z,2.47
2018-08-20T13:41:04.531Z,2.37
2018-08-20T13:43:33.377Z,2.30
2018-08-20T13:46:02.292Z,2.10
2018-08-20T13:48:31.140Z,2.67
2018-08-20T13:50:59.987Z,2.60
2018-08-20T13:56:07.448Z,2.10
2018-08-20T13:58:36.159Z,2.50
2018-08-20T14:01:04.978Z,2.30
2018-08-20T14:03:33.627Z,2.30
2018-08-20T14:06:02.555Z,2.27
2018-08-20T14:08:31.243Z,2.23
2018-08-20T14:10:59.911Z,2.03
2018-08-20T14:13:28.569Z,1.90
2018-08-20T14:15:57.254Z,2.10
2018-08-20T14:18:27.103Z,2.30
2018-08-20T14:21:06.670Z,2.00
2018-08-20T14:23:35.743Z,3.37
2018-08-20T14:26:04.484Z,2.20
2018-08-20T14:28:33.171Z,1.97
2018-08-20T14:31:01.824Z,2.17
2018-08-20T14:33:30.469Z,2.10
2018-08-20T14:35:59.141Z,1.73
2018-08-20T14:38:27.801Z,1.97
2018-08-20T14:40:56.538Z,1.90
2018-08-20T14:43:25.229Z,1.90
2018-08-20T14:45:59.345Z,2.17
2018-08-20T14:48:28.008Z,1.97
2018-08-20T14:50:56.772Z,1.80
2018-08-20T14:53:25.445Z,1.70
2018-08-20T14:55:54.288Z,1.80
2018-08-20T14:58:23.119Z,1.67
2018-08-20T15:00:51.806Z,1.70
2018-08-20T15:03:20.472Z,1.70
2018-08-20T15:05:49.143Z,1.63
2018-08-20T15:08:17.864Z,2.00
2018-08-20T15:10:46.517Z,1.80
2018-08-20T15:13:15.240Z,1.90
2018-08-20T15:15:44.381Z,2.10
2018-08-20T15:18:12.824Z,1.90
2018-08-20T15:20:41.528Z,1.80
2018-08-20T15:23:10.208Z,2.10
2018-08-20T15:25:38.866Z,1.80
2018-08-20T15:28:07.614Z,1.80
2018-08-20T15:30:36.266Z,2.07
2018-08-20T15:33:04.961Z,2.10
2018-08-20T15:35:33.625Z,2.10
2018-08-20T15:38:02.449Z,2.37
2018-08-20T15:40:31.175Z,2.10
2018-08-20T15:42:59.837Z,2.47
2018-08-20T15:45:28.509Z,2.40
2018-08-20T15:47:57.199Z,2.43
2018-08-20T15:50:26.000Z,2.40
2018-08-20T15:52:54.712Z,2.20
2018-08-20T15:55:23.463Z,2.60
2018-08-20T15:57:52.269Z,3.23
2018-08-20T16:00:20.988Z,2.30
2018-08-20T16:02:49.698Z,2.63
2018-08-20T16:05:18.425Z,2.30
2018-08-20T16:07:47.303Z,2.13
2018-08-20T16:10:15.951Z,2.10
2018-08-20T16:12:44.628Z,2.13
2018-08-20T16:15:13.340Z,2.03
2018-08-20T16:17:41.990Z,2.10
2018-08-20T16:20:10.687Z,2.30
2018-08-20T16:22:39.365Z,2.07
2018-08-20T16:25:08.497Z,2.00
2018-08-20T16:27:37.207Z,2.50
2018-08-20T16:30:08.649Z,2.07
2018-08-20T16:32:37.539Z,2.30
2018-08-20T16:35:07.871Z,2.03
2018-08-20T16:37:36.651Z,2.10
2018-08-20T16:40:06.069Z,3.40
2018-08-20T16:42:34.748Z,2.17
2018-08-20T16:45:03.423Z,2.20
2018-08-20T16:47:32.101Z,2.30
2018-08-20T16:50:00.811Z,2.10
2018-08-20T16:52:29.469Z,2.40
2018-08-20T16:54:58.192Z,2.13
2018-08-20T16:57:26.877Z,1.90
2018-08-20T16:59:55.549Z,2.00
2018-08-20T17:02:28.268Z,2.60
2018-08-20T17:04:56.996Z,2.20
2018-08-20T17:07:25.746Z,8.00
2018-08-20T17:09:54.864Z,2.30
2018-08-20T17:12:23.512Z,1.93
2018-08-20T17:14:52.218Z,2.30
2018-08-20T17:17:20.849Z,2.00
2018-08-20T17:19:49.532Z,2.40
2018-08-20T17:22:18.332Z,2.00
2018-08-20T17:24:53.366Z,2.33
2018-08-20T17:27:22.144Z,2.20
2018-08-20T17:29:53.725Z,2.03
2018-08-20T17:32:22.404Z,2.00
2018-08-20T17:34:51.101Z,2.00
2018-08-20T17:37:19.845Z,2.00
2018-08-20T17:39:59.510Z,2.00
2018-08-20T17:42:29.416Z,2.20
2018-08-20T17:44:58.913Z,2.07
2018-08-20T17:47:28.285Z,2.10
2018-08-20T17:49:57.921Z,2.00
2018-08-20T17:52:27.829Z,1.90
2018-08-20T17:54:58.530Z,2.40
2018-08-20T17:57:27.181Z,2.03
2018-08-20T18:00:04.884Z,2.30
2018-08-20T18:02:33.539Z,2.20
2018-08-20T18:05:02.197Z,2.57
2018-08-20T18:07:30.862Z,2.20
2018-08-20T18:09:59.809Z,2.37
2018-08-20T18:12:28.495Z,2.30
2018-08-20T18:15:01.114Z,2.10
2018-08-20T18:17:29.828Z,2.20
2018-08-20T18:19:58.481Z,2.40
2018-08-20T18:22:27.285Z,2.37
2018-08-20T18:24:56.073Z,2.20
2018-08-20T18:27:26.207Z,2.50
2018-08-20T18:29:54.995Z,2.40
2018-08-20T18:32:23.585Z,2.30
2018-08-20T18:34:52.269Z,2.30
2018-08-20T18:37:20.928Z,2.20
2018-08-20T18:39:54.821Z,2.30
2018-08-20T18:42:24.777Z,2.40
2018-08-20T18:44:53.464Z,3.00
2018-08-20T18:47:22.226Z,2.83
2018-08-20T18:49:56.422Z,2.50
2018-08-20T18:52:27.548Z,2.37
2018-08-20T18:54:57.557Z,2.60
2018-08-20T18:57:31.156Z,2.57
2018-08-20T19:00:01.281Z,2.67
2018-08-20T19:02:35.056Z,2.70
2018-08-20T19:05:03.996Z,2.47
2018-08-20T19:07:32.666Z,2.40
2018-08-20T19:10:01.503Z,2.33
2018-08-20T19:12:30.168Z,2.30
2018-08-20T19:14:58.908Z,2.63
2018-08-20T19:17:28.386Z,2.70
2018-08-20T19:20:01.623Z,2.30
2018-08-20T19:22:30.600Z,2.37
2018-08-20T19:24:59.273Z,2.50
2018-08-20T19:27:29.157Z,2.63
2018-08-20T19:29:58.440Z,2.67
2018-08-20T19:32:27.185Z,2.60
2018-08-20T19:34:55.827Z,2.60
2018-08-20T19:37:24.507Z,2.40
2018-08-20T19:39:53.305Z,2.50
2018-08-20T19:42:27.497Z,2.00
2018-08-20T19:44:56.201Z,2.60
2018-08-20T19:47:24.848Z,2.50
2018-08-20T19:49:53.543Z,2.83
2018-08-20T19:52:22.304Z,2.50
2018-08-20T19:54:55.170Z,2.77
2018-08-20T19:57:23.870Z,2.70
2018-08-20T19:59:52.604Z,2.50
2018-08-20T20:02:21.242Z,2.70
2018-08-20T20:04:49.944Z,2.43
2018-08-20T20:07:18.624Z,2.70
2018-08-20T20:09:47.368Z,2.50
2018-08-20T20:12:16.060Z,2.50
2018-08-20T20:14:48.374Z,2.57
2018-08-20T20:17:17.020Z,2.50
2018-08-20T20:19:45.710Z,2.90
2018-08-20T20:22:15.974Z,2.40
2018-08-20T20:24:44.693Z,2.50
2018-08-20T20:27:13.354Z,2.40
2018-08-20T20:29:42.064Z,2.57
2018-08-20T20:32:10.724Z,2.50
2018-08-20T20:34:39.683Z,3.10
2018-08-20T20:37:08.392Z,2.40
2018-08-20T20:39:41.370Z,2.70
2018-08-20T20:42:10.020Z,2.40
2018-08-20T20:44:38.695Z,2.43
2018-08-20T20:47:07.381Z,2.10
2018-08-20T20:49:36.038Z,2.20
2018-08-20T20:52:04.744Z,2.00
2018-08-20T20:54:33.421Z,2.07
2018-08-20T20:57:02.096Z,2.20
2018-08-20T20:59:30.798Z,2.30
2018-08-20T21:01:59.472Z,2.53
2018-08-20T21:04:28.142Z,2.00
2018-08-20T21:06:56.800Z,2.03
2018-08-20T21:09:26.017Z,1.83
2018-08-20T21:11:54.716Z,1.80
2018-08-20T21:14:23.398Z,1.93
2018-08-20T21:16:52.070Z,2.03
2018-08-20T21:19:20.747Z,1.60
2018-08-20T21:21:49.392Z,1.90
2018-08-20T21:24:18.062Z,1.90
2018-08-20T21:26:53.572Z,1.73
2018-08-20T21:29:22.240Z,1.53
2018-08-20T21:31:52.130Z,1.63
2018-08-20T21:34:22.306Z,1.60
2018-08-20T21:36:51.014Z,1.60
2018-08-20T21:39:19.684Z,1.67
2018-08-20T21:41:48.326Z,1.60
2018-08-20T21:44:16.993Z,1.70
2018-08-20T21:46:45.652Z,1.80
2018-08-20T21:49:14.344Z,2.50
2018-08-20T21:51:48.384Z,2.07
2018-08-20T21:54:23.328Z,1.90
2018-08-20T21:56:53.235Z,1.70
2018-08-20T21:59:21.911Z,1.40
2018-08-20T22:01:50.566Z,1.70
2018-08-20T22:04:20.307Z,1.80
2018-08-20T22:06:49.495Z,1.90
2018-08-20T22:09:18.184Z,1.60
2018-08-20T22:11:46.975Z,1.73
2018-08-20T22:14:15.673Z,1.33
2018-08-20T22:16:44.331Z,1.67
2018-08-20T22:19:13.057Z,2.10
2018-08-20T22:21:41.699Z,1.60
2018-08-20T22:24:10.397Z,1.80
2018-08-20T22:26:45.202Z,1.73
2018-08-20T22:29:13.899Z,2.00
2018-08-20T22:31:48.109Z,1.60
2018-08-20T22:34:16.767Z,1.47
2018-08-20T22:36:46.344Z,1.50
2018-08-20T22:39:14.983Z,1.40
2018-08-20T22:41:43.645Z,1.30
2018-08-20T22:44:12.501Z,1.60
2018-08-20T22:46:41.159Z,1.63
2018-08-20T22:49:09.815Z,1.47
2018-08-20T22:51:38.501Z,1.20
2018-08-20T22:54:07.154Z,1.17
2018-08-20T22:56:36.551Z,1.10
2018-08-20T22:59:07.864Z,1.10
2018-08-20T23:01:36.562Z,1.20
2018-08-20T23:04:05.415Z,1.10
2018-08-20T23:06:34.083Z,1.10
2018-08-20T23:09:19.751Z,1.00
2018-08-20T23:11:48.434Z,1.20
2018-08-20T23:14:17.168Z,1.30
2018-08-20T23:16:48.553Z,0.90
2018-08-20T23:19:17.225Z,1.20
2018-08-20T23:21:46.695Z,1.03
2018-08-20T23:24:16.032Z,1.00
2018-08-20T23:26:44.672Z,1.13
2018-08-20T23:29:13.344Z,0.93
2018-08-20T23:31:42.019Z,1.00
2018-08-20T23:34:12.526Z,1.27
2018-08-20T23:36:41.690Z,1.20
2018-08-20T23:39:13.276Z,1.00
2018-08-20T23:41:41.959Z,0.93
2018-08-20T23:44:10.675Z,1.30
2018-08-20T23:46:44.584Z,1.10
2018-08-20T23:49:13.220Z,1.00
2018-08-20T23:51:42.120Z,1.20
2018-08-20T23:54:11.608Z,1.20
2018-08-20T23:56:40.304Z,1.20
2018-08-20T23:59:09.208Z,1.17
